Tortola's Pride — HO-3796 — position and weather

sailwx.info

Track history (hours):
 
Tides and Currents Weather Stations Pressure Air Temp Water Temp Dewpoint Dewpoint Depression Visibility Wind Speed Wind Dir Waves Ship Positions

Tortola's Pride

Last reported at 2016-Dec-10 09:32 UTC. Time now 2016-Dec-11 09:58 UTC.
Position N 18°25' W 064°36'.

Length 49 m; draft 2.8 m.

Type: Cargo ship. MMSI: 355921000.

Date/timePositionNaut miles runAvg speedWind from/ knotsBaromVisibWave heightAir tempDewpointWater temp
2016-Dec-10 09:32N 18°25' W 064°36'66 9.5
2016-Dec-10 02:33N 18°10' W 063°28'9 9.1
2016-Dec-10 01:33N 18°08' W 063°19'10 9.3
2016-Dec-10 00:29N 18°06' W 063°09'3 3.6
2016-Dec-09 23:32N 18°05' W 063°05'0 0.0
2016-Dec-09 22:31N 18°05' W 063°05'0 0.0
2016-Dec-09 21:30N 18°05' W 063°05'4 4.3
2016-Dec-09 20:30N 18°07' W 063°09'7 0.8
2016-Dec-09 11:33N 18°13' W 063°14'73 8.1
2016-Dec-09 02:34N 18°24' W 064°29'  
Track history (hours):
 
Tides and Currents Weather Stations Pressure Air Temp Water Temp Dewpoint Dewpoint Depression Visibility Wind Speed Wind Dir Waves Ship Positions

Tortola's Pride

Last reported at 2016-Dec-10 09:32 UTC. Time now 2016-Dec-11 09:58 UTC.
Position N 18°25' W 064°36'.

Length 49 m; draft 2.8 m.

Type: Cargo ship. MMSI: 355921000.

Date/timePositionNaut miles runAvg speedWind from/ knotsBaromVisibWave heightAir tempDewpointWater temp
2016-Dec-10 09:32N 18°25' W 064°36'66 9.5
2016-Dec-10 02:33N 18°10' W 063°28'9 9.1
2016-Dec-10 01:33N 18°08' W 063°19'10 9.3
2016-Dec-10 00:29N 18°06' W 063°09'3 3.6
2016-Dec-09 23:32N 18°05' W 063°05'0 0.0
2016-Dec-09 22:31N 18°05' W 063°05'0 0.0
2016-Dec-09 21:30N 18°05' W 063°05'4 4.3
2016-Dec-09 20:30N 18°07' W 063°09'7 0.8
2016-Dec-09 11:33N 18°13' W 063°14'73 8.1
2016-Dec-09 02:34N 18°24' W 064°29'  

Dump ship's entire track history